Data for 01/21/2010

Time Sea-Level Adjusted Pressure Absolute Pressure Temperature Relative Humidity Dew Point   
(mb) (inHg) (mb) (inHg) (C) (F) (%) (C) (F)
00:05 999 29.5 828 24.45 -3 26.6 61 -9.5 14.9
00:10 999 29.5 828 24.45 -3.1 26.5 62 -9.4 15.1
00:15 999 29.5 828 24.45 -3.1 26.4 62 -9.5 14.9
00:20 999 29.5 828 24.45 -3.1 26.3 62 -9.5 14.9
00:25 999 29.5 828 24.45 -3.4 25.8 64 -9.4 15.1
00:30 999 29.5 828 24.45 -3.4 25.9 64 -9.2 15.4
00:35 999 29.5 828 24.45 -3.1 26.3 62 -9.5 14.9
00:40 999 29.5 828 24.45 -3 26.6 61 -9.5 14.9
00:45 999 29.5 828 24.45 -3 26.7 60 -9.7 14.6
00:50 999 29.5 828 24.45 -2.9 26.9 61 -9.4 15.1
00:55 999 29.5 828 24.45 -3 26.6 62 -9.4 15.1
01:00 999 29.5 828 24.45 -2.7 27.2 60 -9.4 15.2
01:05 999 29.5 828 24.45 -2.9 26.7 61 -9.4 15.1
01:10 999 29.5 828 24.45 -3.2 26.3 62 -9.5 15
01:15 999 29.5 828 24.45 -2.8 27 60 -9.5 14.9
01:20 999 29.5 828 24.45 -2.7 27.1 60 -9.4 15
01:25 999 29.5 828 24.45 -3.3 26 62 -9.6 14.7
01:30 998 29.47 828 24.45 -3.2 26.2 62 -9.4 15.1
01:35 998 29.47 828 24.45 -3.3 26.1 61 -9.7 14.5
01:40 998 29.47 828 24.45 -3.4 25.9 63 -9.4 15.1
01:45 998 29.47 828 24.45 -3.3 26.1 62 -9.5 14.9
01:50 998 29.47 828 24.45 -3.2 26.3 62 -9.5 14.9
01:55 998 29.47 828 24.45 -3.2 26.3 63 -9.4 15.2
02:00 998 29.47 828 24.45 -3.7 25.4 65 -9.4 15.1
02:05 998 29.47 828 24.45 -3.3 26.1 63 -9.4 15
02:10 998 29.47 828 24.45 -2.9 26.9 60 -9.6 14.8
02:15 998 29.47 828 24.45 -2.3 27.9 60 -9.1 15.6
02:20 999 29.5 828 24.45 -2.8 27.1 61 -9.3 15.3
02:25 999 29.5 828 24.45 -2.9 26.7 61 -9.5 15
02:30 999 29.5 828 24.45 -2.7 27.2 61 -9.3 15.3
02:35 999 29.5 828 24.45 -2.9 26.8 61 -9.4 15.1
02:40 999 29.5 828 24.45 -3 26.6 61 -9.4 15.1
02:45 999 29.5 828 24.45 -3.1 26.4 62 -9.4 15.1
02:50 999 29.5 828 24.45 -3.4 25.9 62 -9.7 14.6
02:55 999 29.5 828 24.45 -3.4 25.8 61 -9.8 14.3
03:00 998 29.47 828 24.45 -3 26.7 61 -9.4 15.1
03:05 998 29.47 828 24.45 -2.7 27.2 59 -9.6 14.8
03:10 998 29.47 828 24.45 -2.6 27.3 59 -9.5 14.9
03:15 999 29.5 828 24.45 -2.9 26.7 61 -9.4 15
03:20 999 29.5 828 24.45 -2.5 27.4 59 -9.5 15
03:25 999 29.5 828 24.45 -2.5 27.6 59 -9.4 15.1
03:30 998 29.47 828 24.45 -2.5 27.6 60 -9.3 15.3
03:35 998 29.47 828 24.45 -2.5 27.5 60 -9.3 15.3
03:40 998 29.47 828 24.45 -2.5 27.4 60 -9.2 15.4
03:45 998 29.47 828 24.45 -2.5 27.5 59 -9.4 15.1
03:50 998 29.47 828 24.45 -2.5 27.5 59 -9.4 15.2
03:55 998 29.47 827 24.42 -2.3 27.8 59 -9.3 15.3
04:00 998 29.47 827 24.42 -2.5 27.5 59 -9.5 14.8
04:05 998 29.47 827 24.42 -2.5 27.5 60 -9.3 15.3
04:10 998 29.47 827 24.42 -2.3 27.9 58 -9.4 15.1
04:15 998 29.47 827 24.42 -2.4 27.8 59 -9.3 15.3
04:20 998 29.47 827 24.42 -2.5 27.5 60 -9.3 15.3
04:25 998 29.47 827 24.42 -2.8 27 59 -9.6 14.7
04:30 998 29.47 827 24.42 -2.3 27.9 58 -9.4 15.2
04:35 998 29.47 827 24.42 -2.1 28.1 59 -9.2 15.5
04:40 998 29.47 827 24.42 -2.3 27.8 59 -9.3 15.3
04:45 998 29.47 827 24.42 -2.4 27.7 58 -9.5 14.9
04:50 998 29.47 827 24.42 -2.3 27.9 59 -9.3 15.2
04:55 998 29.47 827 24.42 -2.4 27.7 58 -9.5 14.9
05:00 998 29.47 827 24.42 -1.8 28.7 57 -9.2 15.4
05:05 998 29.47 827 24.42 -2 28.4 58 -9.1 15.6
05:10 998 29.47 827 24.42 -2.1 28.2 58 -9.3 15.3
05:15 998 29.47 827 24.42 -2 28.4 56 -9.6 14.8
05:20 998 29.47 827 24.42 -2 28.3 58 -9.2 15.4
05:25 998 29.47 827 24.42 -2.1 28.1 58 -9.3 15.2
05:30 998 29.47 827 24.42 -2.1 28.2 58 -9.3 15.3
05:35 998 29.47 827 24.42 -2 28.3 58 -9.2 15.5
05:40 998 29.47 827 24.42 -2 28.3 58 -9.2 15.5
05:45 998 29.47 827 24.42 -1.9 28.6 57 -9.4 15.1
05:50 998 29.47 827 24.42 -1.7 29 59 -8.7 16.3
05:55 998 29.47 827 24.42 -1.4 29.5 54 -9.5 15
06:00 998 29.47 827 24.42 -1.1 30 55 -9 15.7
06:05 998 29.47 827 24.42 -1.2 29.8 56 -9 15.7
06:10 998 29.47 827 24.42 -1.4 29.4 57 -8.9 16.1
06:15 998 29.47 827 24.42 -1.7 29 58 -9 15.8
06:20 998 29.47 827 24.42 -1.6 29 57 -9 15.7
06:25 997 29.44 827 24.42 -0.9 30.4 55 -8.9 16
06:30 998 29.47 827 24.42 -1.1 30 55 -8.9 16
06:35 998 29.47 827 24.42 -1 30.1 55 -8.9 16
06:40 998 29.47 827 24.42 -1 30.2 55 -8.9 16
06:45 998 29.47 827 24.42 -1 30.2 56 -8.8 16.2
06:50 997 29.44 827 24.42 -1 30.2 56 -8.8 16.2
06:55 997 29.44 827 24.42 -1 30.3 55 -8.9 16
07:00 997 29.44 827 24.42 -0.9 30.3 55 -8.8 16.2
07:05 998 29.47 827 24.42 -0.8 30.6 55 -8.8 16.2
07:10 997 29.44 827 24.42 -0.6 30.9 55 -8.7 16.4
07:15 997 29.44 827 24.42 -0.9 30.4 57 -8.4 16.8
07:20 997 29.44 826 24.39 -1 30.2 56 -8.6 16.4
07:25 997 29.44 826 24.39 -1 30.2 57 -8.5 16.6
07:30 997 29.44 826 24.39 -1 30.2 56 -8.8 16.2
07:35 997 29.44 827 24.42 -0.6 30.9 53 -9 15.8
07:40 997 29.44 827 24.42 -0.3 31.5 52 -8.9 16
07:45 997 29.44 827 24.42 -0.2 31.7 53 -8.6 16.4
07:50 997 29.44 827 24.42 -0.2 31.6 53 -8.7 16.4
07:55 997 29.44 827 24.42 -0.3 31.4 54 -8.6 16.5
08:00 997 29.44 827 24.42 -0.7 30.7 55 -8.6 16.5
08:05 997 29.44 827 24.42 -0.7 30.7 55 -8.7 16.4
08:10 997 29.44 827 24.42 -0.9 30.5 57 -8.4 17
08:15 997 29.44 827 24.42 -1.9 28.6 59 -8.9 16
08:20 997 29.44 827 24.42 -1.6 29.1 58 -8.7 16.3
08:25 998 29.47 827 24.42 -1.3 29.7 56 -9.1 15.7
08:30 998 29.47 827 24.42 -0.3 31.4 53 -8.8 16.2
08:35 998 29.47 827 24.42 -0.1 31.9 53 -8.7 16.4
08:40 998 29.47 827 24.42 0.1 32.1 52 -8.6 16.6
08:45 998 29.47 827 24.42 0.1 32.2 54 -8.3 17.1
08:50 998 29.47 827 24.42 -0.2 31.7 56 -8 17.6
08:55 998 29.47 827 24.42 -0.3 31.4 56 -8 17.6
09:00 998 29.47 827 24.42 -0.3 31.4 56 -8.1 17.4
09:05 998 29.47 827 24.42 -0.2 31.7 54 -8.5 16.8
09:10 998 29.47 827 24.42 0.4 32.7 54 -7.8 18
09:15 998 29.47 827 24.42 0.4 32.7 52 -8.4 16.8
09:20 998 29.47 827 24.42 0.7 33.3 52 -8.2 17.3
09:25 998 29.47 827 24.42 0.7 33.3 51 -8.2 17.2
09:30 998 29.47 827 24.42 0.5 32.9 52 -8.3 17
09:35 998 29.47 827 24.42 0.8 33.5 50 -8.3 17
09:40 998 29.47 827 24.42 1 33.8 50 -8.2 17.3
09:45 998 29.47 827 24.42 0.9 33.7 51 -8 17.6
09:50 998 29.47 827 24.42 0.7 33.2 51 -8.4 16.8
09:55 998 29.47 827 24.42 1.1 33.9 50 -8.2 17.2
10:00 998 29.47 827 24.42 1.2 34.2 50 -8.1 17.3
10:05 998 29.47 827 24.42 1.4 34.4 50 -7.9 17.7
10:10 998 29.47 827 24.42 1.5 34.8 49 -8.1 17.4
10:15 998 29.47 827 24.42 1.7 35 50 -7.7 18.1
10:20 998 29.47 827 24.42 1.3 34.4 52 -7.6 18.3
10:25 998 29.47 827 24.42 0.9 33.7 52 -7.8 18
10:30 998 29.47 827 24.42 0.6 33.1 55 -7.5 18.4
10:35 998 29.47 827 24.42 0.2 32.4 54 -8 17.5
10:40 998 29.47 827 24.42 0.3 32.6 53 -8.1 17.5
10:45 998 29.47 827 24.42 0.3 32.5 54 -8 17.6
10:50 998 29.47 827 24.42 0.2 32.4 54 -8.2 17.3
10:55 998 29.47 827 24.42 0.7 33.2 53 -8 17.7
11:00 998 29.47 827 24.42 1 33.8 51 -7.9 17.7
11:05 998 29.47 827 24.42 0.8 33.4 53 -7.7 18.2
11:10 998 29.47 827 24.42 0.9 33.7 52 -8 17.7
11:15 998 29.47 827 24.42 0.9 33.7 51 -8.1 17.5
11:20 998 29.47 827 24.42 1.2 34.2 49 -8.3 17.1
11:25 998 29.47 827 24.42 1.7 35 50 -7.7 18.2
11:30 998 29.47 827 24.42 1.9 35.3 49 -7.9 17.9
11:35 998 29.47 827 24.42 2.1 35.8 48 -7.7 18.2
11:40 998 29.47 827 24.42 2.7 36.9 47 -7.6 18.3
11:45 997 29.44 827 24.42 3 37.4 46 -7.4 18.7
11:50 997 29.44 827 24.42 3.3 37.9 46 -7.2 19.1
11:55 997 29.44 827 24.42 4.2 39.6 43 -7.3 18.8
12:00 997 29.44 827 24.42 4.2 39.6 45 -6.8 19.8
12:05 997 29.44 827 24.42 3.3 38 48 -6.8 19.8
12:10 997 29.44 826 24.39 3 37.5 47 -7.1 19.2
12:15 997 29.44 826 24.39 2.8 37 46 -7.8 18
12:20 997 29.44 826 24.39 1.8 35.2 50 -7.6 18.3
12:25 997 29.44 826 24.39 2.3 36.2 46 -8.2 17.3
12:30 997 29.44 826 24.39 2.7 36.9 45 -8 17.6
12:35 997 29.44 826 24.39 2.6 36.8 45 -8.2 17.2
12:40 997 29.44 826 24.39 2.4 36.4 44 -8.6 16.5
12:45 997 29.44 826 24.39 2.6 36.7 45 -8.2 17.2
12:50 997 29.44 826 24.39 3 37.4 42 -8.6 16.4
12:55 997 29.44 826 24.39 3.2 37.7 46 -7.3 18.9
13:00 997 29.44 826 24.39 3.1 37.6 47 -7.2 19.1
13:05 997 29.44 826 24.39 3.4 38.2 47 -6.9 19.5
13:10 997 29.44 826 24.39 3.4 38.2 45 -7.4 18.7
13:15 997 29.44 826 24.39 3.4 38.1 46 -7 19.4
13:20 997 29.44 826 24.39 3 37.4 48 -6.9 19.5
13:25 997 29.44 826 24.39 2.8 37.1 47 -7.4 18.6
13:30 997 29.44 826 24.39 2.9 37.3 47 -7.3 18.9
13:35 997 29.44 826 24.39 2.7 36.9 47 -7.5 18.6
13:40 997 29.44 826 24.39 3.3 37.9 45 -7.5 18.5
13:45 997 29.44 826 24.39 2.7 36.9 48 -7.3 18.9
13:50 997 29.44 826 24.39 2.6 36.7 46 -7.8 17.9
13:55 996 29.41 826 24.39 2.3 36.1 47 -7.8 17.9
14:00 996 29.41 826 24.39 2.6 36.7 49 -7.1 19.3
14:05 996 29.41 826 24.39 2.9 37.2 45 -7.9 17.7
14:10 996 29.41 826 24.39 3.1 37.6 47 -7 19.3
14:15 996 29.41 826 24.39 3.4 38.1 44 -7.7 18.2
14:20 996 29.41 826 24.39 4.8 40.6 38 -8.3 17
14:25 996 29.41 826 24.39 4.8 40.6 39 -8.1 17.4
14:30 996 29.41 826 24.39 4.2 39.6 38 -8.8 16.2
14:35 996 29.41 826 24.39 4.8 40.7 41 -7.3 18.9
14:40 996 29.41 826 24.39 4.9 40.9 40 -7.6 18.4
14:45 996 29.41 826 24.39 5 41 38 -8.1 17.4
14:50 996 29.41 826 24.39 4.5 40.2 38 -8.6 16.6
14:55 996 29.41 826 24.39 3.8 38.8 41 -8.3 17
15:00 996 29.41 826 24.39 3.9 39 40 -8.6 16.5
15:05 996 29.41 826 24.39 4.3 39.8 39 -8.5 16.7
15:10 996 29.41 826 24.39 4.2 39.5 41 -8.1 17.4
15:15 996 29.41 826 24.39 4.2 39.6 38 -8.8 16.1
15:20 996 29.41 826 24.39 4 39.1 41 -8.1 17.4
15:25 996 29.41 826 24.39 4 39.2 41 -8.2 17.3
15:30 996 29.41 826 24.39 4.7 40.4 38 -8.4 17
15:35 996 29.41 826 24.39 4.4 40 38 -8.7 16.3
15:40 997 29.44 826 24.39 4.4 40 39 -8.2 17.2
15:45 997 29.44 826 24.39 5.1 41.2 36 -8.7 16.4
15:50 997 29.44 826 24.39 5.3 41.5 41 -6.8 19.8
15:55 997 29.44 826 24.39 4 39.3 45 -6.7 19.9
16:00 997 29.44 826 24.39 3.6 38.4 43 -8 17.6
16:05 997 29.44 826 24.39 3.4 38.1 45 -7.5 18.5
16:10 997 29.44 826 24.39 3.3 37.9 43 -8 17.6
16:15 997 29.44 826 24.39 3.4 38.1 44 -7.8 18
16:20 997 29.44 826 24.39 3.4 38.1 44 -7.6 18.4
16:25 997 29.44 826 24.39 3.4 38.2 45 -7.4 18.6
16:30 997 29.44 826 24.39 3.1 37.7 46 -7.4 18.7
16:35 997 29.44 826 24.39 3.3 37.9 45 -7.6 18.3
16:40 997 29.44 826 24.39 3.5 38.4 45 -7.2 19.1
16:45 997 29.44 826 24.39 3.4 38.1 46 -7.1 19.2
16:50 997 29.44 826 24.39 3 37.5 48 -6.9 19.6
16:55 997 29.44 826 24.39 2.4 36.4 49 -7.1 19.2
17:00 997 29.44 826 24.39 2.3 36.2 49 -7.4 18.7
17:05 997 29.44 826 24.39 2 35.6 52 -6.8 19.7
17:10 997 29.44 826 24.39 1.5 34.7 52 -7.3 18.8
17:15 997 29.44 826 24.39 1.2 34.2 52 -7.6 18.3
17:20 997 29.44 826 24.39 1 33.8 52 -7.7 18.1
17:25 997 29.44 826 24.39 0.8 33.5 53 -7.8 18
17:30 997 29.44 826 24.39 0.7 33.2 55 -7.5 18.6
17:35 997 29.44 826 24.39 0.5 32.8 54 -7.7 18.1
17:40 997 29.44 826 24.39 0.3 32.6 55 -7.7 18.1
17:45 997 29.44 826 24.39 0.1 32.1 55 -8 17.6
17:50 997 29.44 826 24.39 0.3 32.5 54 -8 17.5
17:55 997 29.44 826 24.39 0.3 32.5 53 -8.3 17.1
18:00 997 29.44 826 24.39 0.3 32.5 53 -8.1 17.4
18:05 997 29.44 826 24.39 0.2 32.4 54 -8 17.6
18:10 997 29.44 826 24.39 0 32.1 55 -7.9 17.7
18:15 997 29.44 826 24.39 -0.1 31.8 56 -7.8 17.9
18:20 997 29.44 826 24.39 -0.2 31.7 55 -8.2 17.3
18:25 997 29.44 826 24.39 0.1 32.2 55 -8 17.7
18:30 997 29.44 827 24.42 0.1 32.1 57 -7.6 18.4
18:35 997 29.44 827 24.42 -0.1 31.8 56 -7.8 18
18:40 997 29.44 827 24.42 -0 32 53 -8.4 16.9
18:45 997 29.44 827 24.42 0.6 33 56 -7.3 18.9
18:50 997 29.44 827 24.42 -1 30.2 58 -8.3 17.1
18:55 997 29.44 826 24.39 -0.2 31.6 52 -8.8 16.1
19:00 997 29.44 826 24.39 -0.6 30.9 59 -7.6 18.3
19:05 997 29.44 827 24.42 -1.4 29.5 62 -7.8 18
19:10 997 29.44 827 24.42 -1.4 29.5 59 -8.4 16.9
19:15 997 29.44 827 24.42 -0.7 30.7 58 -8 17.6
19:20 997 29.44 827 24.42 -0.9 30.3 59 -8 17.6
19:25 997 29.44 827 24.42 -0.9 30.3 58 -8.2 17.3
19:30 997 29.44 827 24.42 -1.1 30.1 59 -8 17.6
19:35 997 29.44 827 24.42 -1.3 29.7 60 -8.1 17.3
19:40 997 29.44 827 24.42 -1.3 29.6 60 -8.1 17.5
19:45 997 29.44 826 24.39 -1.5 29.2 61 -8 17.6
19:50 997 29.44 826 24.39 -1.3 29.6 60 -8.1 17.4
19:55 997 29.44 826 24.39 -1.2 29.8 61 -7.9 17.7
20:00 997 29.44 826 24.39 -1.3 29.7 61 -7.9 17.7
20:05 997 29.44 826 24.39 -1.2 29.8 60 -8.1 17.4
20:10 997 29.44 826 24.39 -0.8 30.5 59 -8 17.6
20:15 997 29.44 826 24.39 -1 30.2 59 -8 17.6
20:20 997 29.44 826 24.39 -1.1 30.1 59 -8.1 17.4
20:25 997 29.44 826 24.39 -0.9 30.4 58 -8.2 17.3
20:30 997 29.44 826 24.39 -1 30.3 58 -8.2 17.2
20:35 997 29.44 826 24.39 -1.3 29.7 59 -8.3 17
20:40 997 29.44 826 24.39 -1.6 29.1 60 -8.3 17.1
20:45 997 29.44 826 24.39 -1.6 29.1 60 -8.5 16.7
20:50 997 29.44 826 24.39 -1.6 29.1 60 -8.4 16.9
20:55 997 29.44 826 24.39 -1.8 28.7 60 -8.5 16.7
21:00 997 29.44 826 24.39 -1.7 29 60 -8.5 16.7
21:05 997 29.44 826 24.39 -1.5 29.3 59 -8.5 16.7
21:10 997 29.44 826 24.39 -1.5 29.2 58 -8.8 16.2
21:15 997 29.44 826 24.39 -1.3 29.7 56 -9 15.8
21:20 997 29.44 826 24.39 -1 30.2 56 -8.7 16.4
21:25 997 29.44 827 24.42 -1.2 29.9 56 -8.8 16.2
21:30 997 29.44 826 24.39 -1.6 29.2 58 -8.9 16
21:35 997 29.44 826 24.39 -1.2 29.9 57 -8.7 16.3
21:40 997 29.44 826 24.39 -1.4 29.5 57 -8.7 16.3
21:45 997 29.44 826 24.39 -1.5 29.4 58 -8.6 16.5
21:50 997 29.44 826 24.39 -1.6 29.2 58 -8.7 16.3
21:55 997 29.44 826 24.39 -1.4 29.5 58 -8.7 16.3
22:00 997 29.44 826 24.39 -1.3 29.7 57 -8.6 16.4
22:05 997 29.44 826 24.39 -1.1 30 56 -8.7 16.3
22:10 997 29.44 826 24.39 -1 30.1 57 -8.5 16.7
22:15 997 29.44 826 24.39 -1 30.2 56 -8.7 16.4
22:20 997 29.44 826 24.39 -1.1 29.9 57 -8.6 16.5
22:25 997 29.44 826 24.39 -1.3 29.6 58 -8.6 16.5
22:30 997 29.44 826 24.39 -1.3 29.6 58 -8.7 16.4
22:35 996 29.41 826 24.39 -1.5 29.4 58 -8.8 16.2
22:40 996 29.41 826 24.39 -1.5 29.3 57 -8.8 16.1
22:45 996 29.41 825 24.36 -1.5 29.3 58 -8.7 16.3
22:50 996 29.41 825 24.36 -1.8 28.8 59 -8.7 16.3
22:55 996 29.41 825 24.36 -1.9 28.6 59 -8.8 16.1
23:00 996 29.41 825 24.36 -1.7 28.9 58 -8.9 16
23:05 995 29.38 825 24.36 -1.5 29.3 58 -8.7 16.3
23:10 995 29.38 824 24.33 -1.8 28.8 60 -8.7 16.4
23:15 995 29.38 824 24.33 -2.2 28 60 -8.9 16
23:20 995 29.38 824 24.33 -2.2 28 60 -8.9 16
23:25 995 29.38 824 24.33 -2.2 28 61 -8.8 16.2
23:30 995 29.38 825 24.36 -2.3 27.8 61 -8.8 16.2
23:35 995 29.38 825 24.36 -2.2 28 61 -8.9 16.1
23:40 995 29.38 825 24.36 -1.9 28.7 59 -8.8 16.2
23:45 996 29.41 825 24.36 -1.9 28.7 60 -8.7 16.4
23:50 996 29.41 825 24.36 -2 28.4 60 -8.8 16.1
23:55 996 29.41 825 24.36 -2.6 27.4 62 -9 15.9
24:00 996 29.41 825 24.36 -2.8 27 64 -8.7 16.3